Terminal Aerodrome Forecast
Issued by NWS

Home | Current Version | Previous Version | Text Only | Print | Product List | Glossary On
Versions: 1 2 3 4 5 6 7 8 9 10 11 12 13 14 15 16 17 18
825
FTUS43 KICT 151132
TAFHUT
TAF
KHUT 151132Z 1512/1612 15004KT 6SM BR SCT003 BKN250
      TEMPO 1512/1514 2SM BR
     FM151400 16007KT P6SM SCT200
     FM151800 17013KT P6SM SCT040
     FM152300 15011KT P6SM VCTS SCT080CB
     FM160600 17008KT P6SM BKN080
     FM160800 16007KT P6SM BKN035=

USA.gov is the U.S. government's official web portal to all federal, state and local government web resources and services.